Time;durP1;ratioP1;P1;durP2;ratioP2;P2;SDS_P1;SDS_P2;PMS_P1;PMS_P2;Temp;Humidity;BMP_temperature;BMP_pressure;BME280_temperature;BME280_humidity;BME280_pressure;Samples;Min_cycle;Max_cycle;Signal;HPM_P1;HPM_P2
2022/07/06 00:00:10;;;;;;;;;;;28.60;35.80;;;;;;5036124;28;933;-37
2022/07/06 00:02:37;;;;;;;;;;;28.70;35.30;;;;;;5037140;28;986;-37
2022/07/06 00:05:04;;;;;;;;;;;28.80;35.20;;;;;;5037338;28;996;-41
2022/07/06 00:07:31;;;;;;;;;;;28.80;35.20;;;;;;5036674;28;958;-37
2022/07/06 00:09:58;;;;;;;;;;;28.90;35.00;;;;;;5036428;28;1000;-35
2022/07/06 00:12:25;;;;;;;;;;;28.90;35.10;;;;;;5037491;28;937;-35
2022/07/06 00:14:53;;;;;;;;;;;28.90;35.00;;;;;;5037288;28;946;-42
2022/07/06 00:17:20;;;;;;;;;;;29.00;34.80;;;;;;5037731;28;1902;-42
2022/07/06 00:19:47;;;;;;;;;;;29.10;34.50;;;;;;5036942;28;961;-39
2022/07/06 00:22:13;;;;;;;;;;;29.10;34.40;;;;;;5037563;28;1309;-43
2022/07/06 00:24:40;;;;;;;;;;;29.10;34.20;;;;;;5039244;28;1017;-44
2022/07/06 00:27:07;;;;;;;;;;;29.10;34.40;;;;;;5041022;28;1002;-46
2022/07/06 00:29:33;;;;;;;;;;;29.10;34.60;;;;;;5040619;28;977;-43
2022/07/06 00:32:01;;;;;;;;;;;29.10;34.40;;;;;;5041013;28;886;-43
2022/07/06 00:34:28;;;;;;;;;;;29.10;34.40;;;;;;5041228;28;938;-37
2022/07/06 00:36:55;;;;;;;;;;;29.00;34.50;;;;;;5040944;28;1909;-40
2022/07/06 00:39:23;;;;;;;;;;;29.00;34.30;;;;;;5040833;28;1827;-42
2022/07/06 00:41:50;;;;;;;;;;;29.10;34.30;;;;;;5040621;28;989;-39
2022/07/06 00:44:16;;;;;;;;;;;29.10;34.20;;;;;;5040603;28;1012;-40
2022/07/06 00:46:43;;;;;;;;;;;29.10;34.30;;;;;;5040544;28;1061;-38
2022/07/06 00:50:13;;;;;;;;;;;29.20;34.10;;;;;;5040123;28;1001;-39
2022/07/06 00:51:59;;;;;;;;;;;29.10;34.40;;;;;;5040374;28;1277;-37
2022/07/06 00:54:26;;;;;;;;;;;29.10;34.40;;;;;;5040957;28;1012;-38
2022/07/06 00:56:53;;;;;;;;;;;28.90;34.70;;;;;;5040453;28;1898;-38
2022/07/06 00:59:20;;;;;;;;;;;28.90;34.90;;;;;;5040630;28;949;-42
2022/07/06 01:01:47;;;;;;;;;;;29.00;34.40;;;;;;5040402;28;1009;-37
2022/07/06 01:04:15;;;;;;;;;;;29.00;34.20;;;;;;5040056;28;1016;-38
2022/07/06 01:06:42;;;;;;;;;;;29.00;34.20;;;;;;5040346;28;949;-38
2022/07/06 01:09:08;;;;;;;;;;;29.00;34.10;;;;;;5040358;28;1016;-42
2022/07/06 01:11:35;;;;;;;;;;;29.00;34.10;;;;;;5040017;28;912;-38
2022/07/06 01:14:02;;;;;;;;;;;28.90;34.20;;;;;;5040421;28;1031;-39
2022/07/06 01:16:28;;;;;;;;;;;28.90;34.20;;;;;;5040516;28;977;-41
2022/07/06 01:18:55;;;;;;;;;;;28.90;34.20;;;;;;5040038;28;1969;-39
2022/07/06 01:21:23;;;;;;;;;;;29.00;34.20;;;;;;5040104;28;1136;-36
2022/07/06 01:23:50;;;;;;;;;;;29.00;34.20;;;;;;5040607;28;1068;-36
2022/07/06 01:26:19;;;;;;;;;;;29.00;34.10;;;;;;5040077;28;890;-39
2022/07/06 01:28:45;;;;;;;;;;;29.00;34.10;;;;;;5040098;28;997;-37
2022/07/06 01:31:16;;;;;;;;;;;29.00;34.10;;;;;;5040272;28;937;-36
2022/07/06 01:33:43;;;;;;;;;;;28.90;33.90;;;;;;5040258;28;941;-35
2022/07/06 01:36:10;;;;;;;;;;;28.90;34.00;;;;;;5039507;28;1792;-37
2022/07/06 01:38:45;;;;;;;;;;;28.90;34.00;;;;;;5039815;28;1914;-35
2022/07/06 01:41:12;;;;;;;;;;;28.90;34.00;;;;;;5039869;28;954;-37
2022/07/06 01:43:38;;;;;;;;;;;28.80;34.00;;;;;;5039540;28;1016;-35
2022/07/06 01:46:05;;;;;;;;;;;28.80;33.80;;;;;;5039569;28;1001;-43
2022/07/06 01:48:32;;;;;;;;;;;28.80;34.00;;;;;;5039342;28;1009;-44
2022/07/06 01:50:59;;;;;;;;;;;28.80;34.00;;;;;;5039293;28;996;-41
2022/07/06 01:53:25;;;;;;;;;;;28.80;33.90;;;;;;5039034;28;1021;-41
2022/07/06 01:55:54;;;;;;;;;;;28.80;34.00;;;;;;5039109;28;984;-41
2022/07/06 01:58:20;;;;;;;;;;;28.80;34.00;;;;;;5039348;28;1982;-38
2022/07/06 02:00:47;;;;;;;;;;;28.70;34.00;;;;;;5039371;28;1012;-42
2022/07/06 02:03:13;;;;;;;;;;;28.70;34.00;;;;;;5039584;28;981;-42
2022/07/06 02:05:40;;;;;;;;;;;28.70;34.00;;;;;;5039620;28;1028;-37
2022/07/06 02:08:07;;;;;;;;;;;28.70;33.90;;;;;;5038475;28;937;-41
2022/07/06 02:10:34;;;;;;;;;;;28.70;33.90;;;;;;5039490;28;1012;-41
2022/07/06 02:13:02;;;;;;;;;;;28.70;34.00;;;;;;5039585;28;1110;-37
2022/07/06 02:15:29;;;;;;;;;;;28.70;33.90;;;;;;5039618;28;958;-42
2022/07/06 02:17:55;;;;;;;;;;;28.70;33.80;;;;;;5039764;28;1973;-43
2022/07/06 02:20:22;;;;;;;;;;;28.70;33.80;;;;;;5039013;28;1028;-42
2022/07/06 02:22:49;;;;;;;;;;;28.70;33.80;;;;;;5038971;28;1246;-42
2022/07/06 02:25:15;;;;;;;;;;;28.70;33.70;;;;;;5039338;28;997;-38
2022/07/06 02:27:42;;;;;;;;;;;28.60;33.70;;;;;;5039262;28;1017;-38
2022/07/06 02:30:11;;;;;;;;;;;28.60;33.70;;;;;;5038873;28;962;-39
2022/07/06 02:32:38;;;;;;;;;;;28.60;33.70;;;;;;5038934;28;1032;-40
2022/07/06 02:35:05;;;;;;;;;;;28.60;33.70;;;;;;5039290;28;976;-41
2022/07/06 02:37:31;;;;;;;;;;;28.60;33.70;;;;;;5038613;28;1902;-40
2022/07/06 02:39:58;;;;;;;;;;;28.60;33.80;;;;;;5038346;28;978;-37
2022/07/06 02:45:29;;;;;;;;;;;28.40;33.30;;;;;;5037702;28;618;-45
2022/07/06 02:47:57;;;;;;;;;;;28.30;33.00;;;;;;5037221;28;1010;-45
2022/07/06 02:50:24;;;;;;;;;;;28.20;32.80;;;;;;5038296;28;933;-44
2022/07/06 02:52:50;;;;;;;;;;;28.10;32.80;;;;;;5037551;28;938;-44
2022/07/06 02:55:17;;;;;;;;;;;28.10;32.70;;;;;;5038305;28;937;-43
2022/07/06 02:57:44;;;;;;;;;;;28.10;32.60;;;;;;5038466;28;1971;-45
2022/07/06 03:00:11;;;;;;;;;;;28.00;32.60;;;;;;5037532;28;981;-45
2022/07/06 03:02:39;;;;;;;;;;;27.90;32.50;;;;;;5037283;28;962;-44
2022/07/06 03:05:06;;;;;;;;;;;27.90;32.60;;;;;;5037250;28;1006;-43
2022/07/06 03:07:33;;;;;;;;;;;27.90;32.50;;;;;;5037944;28;1021;-45
2022/07/06 03:10:00;;;;;;;;;;;27.90;32.20;;;;;;5037956;28;987;-44
2022/07/06 03:12:26;;;;;;;;;;;28.00;32.20;;;;;;5038391;28;964;-42
2022/07/06 03:14:53;;;;;;;;;;;27.90;32.20;;;;;;5037778;28;882;-45
2022/07/06 03:17:21;;;;;;;;;;;27.90;32.20;;;;;;5037902;28;936;-44
2022/07/06 03:19:49;;;;;;;;;;;27.90;32.20;;;;;;5037800;28;1969;-45
2022/07/06 03:22:16;;;;;;;;;;;27.80;32.30;;;;;;5037467;28;1120;-45
2022/07/06 03:24:42;;;;;;;;;;;27.80;32.20;;;;;;5037687;28;1016;-45
2022/07/06 03:27:09;;;;;;;;;;;27.80;32.10;;;;;;5037812;28;1028;-45
2022/07/06 03:29:36;;;;;;;;;;;27.80;32.20;;;;;;5036582;28;941;-39
2022/07/06 03:32:03;;;;;;;;;;;27.70;32.20;;;;;;5036630;28;1857;-39
2022/07/06 03:34:30;;;;;;;;;;;27.70;32.30;;;;;;5033358;28;1009;-38
2022/07/06 03:36:58;;;;;;;;;;;27.60;32.40;;;;;;5038006;28;983;-39
2022/07/06 03:39:25;;;;;;;;;;;27.50;32.50;;;;;;5036793;28;1907;-39
2022/07/06 03:41:51;;;;;;;;;;;27.50;32.60;;;;;;5036901;28;1016;-39
2022/07/06 03:44:18;;;;;;;;;;;27.50;32.50;;;;;;5036620;28;950;-36
2022/07/06 03:46:44;;;;;;;;;;;27.50;32.40;;;;;;5035554;28;1012;-36
2022/07/06 03:49:11;;;;;;;;;;;27.50;32.40;;;;;;5029612;28;1001;-36
2022/07/06 03:51:39;;;;;;;;;;;27.40;32.50;;;;;;5035543;28;990;-39
2022/07/06 03:54:07;;;;;;;;;;;27.30;32.50;;;;;;5034538;28;1031;-39
2022/07/06 03:56:34;;;;;;;;;;;27.30;32.60;;;;;;5033413;28;937;-36
2022/07/06 03:59:01;;;;;;;;;;;27.20;32.50;;;;;;5035243;28;1984;-39
2022/07/06 04:01:28;;;;;;;;;;;27.30;32.60;;;;;;5038854;28;998;-38
2022/07/06 04:03:55;;;;;;;;;;;27.30;32.60;;;;;;5038972;28;890;-40
2022/07/06 04:06:22;;;;;;;;;;;27.20;32.60;;;;;;5038538;28;1049;-39
2022/07/06 04:08:48;;;;;;;;;;;27.30;32.70;;;;;;5039017;28;977;-39
2022/07/06 04:11:16;;;;;;;;;;;27.20;32.50;;;;;;5039038;28;952;-39
2022/07/06 04:13:43;;;;;;;;;;;27.20;32.70;;;;;;5039415;28;986;-36
2022/07/06 04:16:10;;;;;;;;;;;27.10;32.80;;;;;;5039648;28;913;-38
2022/07/06 04:18:36;;;;;;;;;;;27.20;32.70;;;;;;5039272;28;1980;-37
2022/07/06 04:21:03;;;;;;;;;;;27.20;32.70;;;;;;5038956;28;1064;-36
2022/07/06 04:23:30;;;;;;;;;;;27.20;32.80;;;;;;5038185;28;1025;-37
2022/07/06 04:25:57;;;;;;;;;;;27.20;32.80;;;;;;5037928;28;957;-37
2022/07/06 04:28:25;;;;;;;;;;;27.20;32.90;;;;;;5037700;28;981;-38
2022/07/06 04:30:52;;;;;;;;;;;27.10;32.90;;;;;;5037583;28;967;-36
2022/07/06 04:33:19;;;;;;;;;;;27.10;32.90;;;;;;5037414;28;898;-37
2022/07/06 04:35:45;;;;;;;;;;;27.10;32.80;;;;;;5037835;28;1000;-36
2022/07/06 04:38:12;;;;;;;;;;;27.10;32.90;;;;;;5037496;28;1902;-36
2022/07/06 04:40:39;;;;;;;;;;;27.10;33.00;;;;;;5038475;28;977;-37
2022/07/06 04:43:06;;;;;;;;;;;27.00;33.10;;;;;;5037854;28;741;-36
2022/07/06 04:45:34;;;;;;;;;;;27.00;33.10;;;;;;5037579;28;937;-37
2022/07/06 04:48:01;;;;;;;;;;;27.00;33.30;;;;;;5038187;28;1169;-36
2022/07/06 04:50:27;;;;;;;;;;;26.90;33.20;;;;;;5039028;28;1001;-38
2022/07/06 04:52:54;;;;;;;;;;;26.90;33.40;;;;;;5039103;28;952;-38
2022/07/06 04:55:21;;;;;;;;;;;26.90;33.40;;;;;;5039022;28;930;-40
2022/07/06 04:57:48;;;;;;;;;;;26.90;33.40;;;;;;5038247;28;1775;-38
2022/07/06 05:00:15;;;;;;;;;;;26.80;33.40;;;;;;5037117;28;1902;-39
2022/07/06 05:02:43;;;;;;;;;;;26.70;33.50;;;;;;5036210;28;992;-39
2022/07/06 05:05:10;;;;;;;;;;;26.70;33.70;;;;;;5036470;28;949;-39
2022/07/06 05:07:39;;;;;;;;;;;26.70;33.90;;;;;;5037660;28;953;-39
2022/07/06 05:10:07;;;;;;;;;;;26.70;33.90;;;;;;5035159;28;922;-40
2022/07/06 05:12:33;;;;;;;;;;;26.70;33.90;;;;;;5035686;28;922;-38
2022/07/06 05:15:00;;;;;;;;;;;26.70;34.00;;;;;;5037100;28;973;-38
2022/07/06 05:17:27;;;;;;;;;;;26.80;34.10;;;;;;5037578;28;928;-37
2022/07/06 05:19:55;;;;;;;;;;;26.80;34.00;;;;;;5037943;28;1902;-39
2022/07/06 05:22:22;;;;;;;;;;;26.70;34.20;;;;;;5037514;28;1125;-38
2022/07/06 05:24:49;;;;;;;;;;;26.70;34.30;;;;;;5037373;28;996;-40
2022/07/06 05:27:15;;;;;;;;;;;26.70;34.30;;;;;;5037514;28;920;-38
2022/07/06 05:29:42;;;;;;;;;;;26.70;34.30;;;;;;5036437;28;1002;-39
2022/07/06 05:32:09;;;;;;;;;;;26.70;34.30;;;;;;5038207;28;975;-38
2022/07/06 05:34:37;;;;;;;;;;;26.60;34.40;;;;;;5035714;28;1001;-39
2022/07/06 05:37:06;;;;;;;;;;;26.60;34.70;;;;;;5036932;28;1066;-38
2022/07/06 05:39:32;;;;;;;;;;;26.60;34.60;;;;;;5037321;28;1906;-40
2022/07/06 05:41:59;;;;;;;;;;;26.70;34.60;;;;;;5036230;28;941;-39
2022/07/06 05:44:26;;;;;;;;;;;26.70;34.50;;;;;;5036089;28;946;-41
2022/07/06 05:50:11;;;;;;;;;;;26.70;34.60;;;;;;5035840;28;901;-39
2022/07/06 05:52:25;;;;;;;;;;;26.60;34.90;;;;;;5035030;28;914;-39
2022/07/06 05:54:51;;;;;;;;;;;26.60;34.90;;;;;;5035834;28;859;-38
2022/07/06 05:57:18;;;;;;;;;;;26.50;34.90;;;;;;5035081;28;933;-39
2022/07/06 05:59:45;;;;;;;;;;;26.50;35.00;;;;;;5035546;28;1906;-38
2022/07/06 06:02:12;;;;;;;;;;;26.40;35.00;;;;;;5035399;28;949;-38
2022/07/06 06:04:39;;;;;;;;;;;26.30;35.00;;;;;;5035084;28;944;-39
2022/07/06 06:07:06;;;;;;;;;;;26.30;35.00;;;;;;5034976;28;1001;-40
2022/07/06 06:09:34;;;;;;;;;;;26.30;35.00;;;;;;5035264;28;1001;-39
2022/07/06 06:12:00;;;;;;;;;;;26.20;35.10;;;;;;5034754;28;972;-38
2022/07/06 06:14:27;;;;;;;;;;;26.20;35.20;;;;;;5035714;28;946;-39
2022/07/06 06:16:54;;;;;;;;;;;26.20;35.30;;;;;;5035086;28;898;-39
2022/07/06 06:19:20;;;;;;;;;;;26.20;35.30;;;;;;5034963;28;1985;-38
2022/07/06 06:21:47;;;;;;;;;;;26.20;35.40;;;;;;5034286;28;972;-40
2022/07/06 06:24:14;;;;;;;;;;;26.10;35.40;;;;;;5035555;28;1112;-38
2022/07/06 06:26:42;;;;;;;;;;;26.10;35.40;;;;;;5036852;28;933;-39
2022/07/06 06:29:09;;;;;;;;;;;26.00;35.50;;;;;;5036940;28;961;-38
2022/07/06 06:31:36;;;;;;;;;;;26.00;35.50;;;;;;5037231;28;945;-39
2022/07/06 06:34:03;;;;;;;;;;;26.10;35.50;;;;;;5037082;28;1040;-38
2022/07/06 06:36:30;;;;;;;;;;;26.00;35.50;;;;;;5037184;28;1025;-39
2022/07/06 06:38:57;;;;;;;;;;;26.00;35.50;;;;;;5036202;28;1989;-38
2022/07/06 06:41:24;;;;;;;;;;;26.00;35.70;;;;;;5037077;28;1013;-39
2022/07/06 06:43:52;;;;;;;;;;;25.90;35.60;;;;;;5036682;28;977;-40
2022/07/06 06:46:19;;;;;;;;;;;25.90;35.70;;;;;;5035784;28;993;-39
2022/07/06 06:48:45;;;;;;;;;;;25.90;35.90;;;;;;5036267;28;1005;-39
2022/07/06 06:51:12;;;;;;;;;;;25.90;35.90;;;;;;5036318;28;997;-40
2022/07/06 06:53:38;;;;;;;;;;;25.90;36.00;;;;;;5036000;28;954;-39
2022/07/06 06:56:06;;;;;;;;;;;25.90;36.10;;;;;;5036394;28;977;-39
2022/07/06 06:58:32;;;;;;;;;;;25.90;36.10;;;;;;5037087;28;942;-38
2022/07/06 07:01:00;;;;;;;;;;;25.80;36.00;;;;;;5036032;28;1985;-39
2022/07/06 07:03:27;;;;;;;;;;;25.80;36.10;;;;;;5036323;28;985;-41
2022/07/06 07:05:54;;;;;;;;;;;25.80;36.50;;;;;;5034896;28;998;-41
2022/07/06 07:08:20;;;;;;;;;;;25.70;36.00;;;;;;5033556;28;930;-39
2022/07/06 07:10:47;;;;;;;;;;;25.70;36.00;;;;;;5033352;28;957;-38
2022/07/06 07:13:14;;;;;;;;;;;25.70;36.10;;;;;;5034292;28;930;-39
2022/07/06 07:15:41;;;;;;;;;;;25.70;36.20;;;;;;5034514;28;1005;-40
2022/07/06 07:18:09;;;;;;;;;;;25.70;36.30;;;;;;5035588;28;983;-41
2022/07/06 07:20:36;;;;;;;;;;;25.70;36.40;;;;;;5034456;28;1998;-39
2022/07/06 07:23:03;;;;;;;;;;;25.70;36.40;;;;;;5036267;28;1120;-39
2022/07/06 07:25:29;;;;;;;;;;;25.70;36.30;;;;;;5036429;28;912;-39
2022/07/06 07:27:56;;;;;;;;;;;25.70;36.40;;;;;;5036844;28;1160;-38
2022/07/06 07:30:23;;;;;;;;;;;25.60;36.40;;;;;;5036357;28;942;-38
2022/07/06 07:32:50;;;;;;;;;;;25.60;36.60;;;;;;5035924;28;1011;-38
2022/07/06 07:35:18;;;;;;;;;;;25.60;36.70;;;;;;5036579;28;1013;-39
2022/07/06 07:37:45;;;;;;;;;;;25.60;36.80;;;;;;5036440;28;1016;-38
2022/07/06 07:40:12;;;;;;;;;;;25.50;37.00;;;;;;5036417;28;1902;-39
2022/07/06 07:42:40;;;;;;;;;;;25.60;36.90;;;;;;5035917;28;981;-38
2022/07/06 07:45:07;;;;;;;;;;;25.60;36.90;;;;;;5035955;28;1000;-39
2022/07/06 07:47:34;;;;;;;;;;;25.50;36.90;;;;;;5035982;28;994;-40
2022/07/06 07:50:01;;;;;;;;;;;25.60;37.20;;;;;;5035683;28;1001;-39
2022/07/06 07:52:31;;;;;;;;;;;25.60;36.80;;;;;;5035289;28;997;-38
2022/07/06 07:54:58;;;;;;;;;;;25.60;36.70;;;;;;5035464;28;953;-38
2022/07/06 07:57:25;;;;;;;;;;;25.60;36.90;;;;;;5035479;28;1028;-38
2022/07/06 07:59:52;;;;;;;;;;;25.60;37.60;;;;;;5034874;28;1969;-38
2022/07/06 08:02:18;;;;;;;;;;;25.60;37.60;;;;;;5035798;28;976;-41
2022/07/06 08:04:45;;;;;;;;;;;25.60;37.20;;;;;;5035079;28;1891;-37
2022/07/06 08:07:12;;;;;;;;;;;25.60;37.60;;;;;;5034740;28;942;-38
2022/07/06 08:09:40;;;;;;;;;;;25.60;37.30;;;;;;5035764;28;1104;-38
2022/07/06 08:12:07;;;;;;;;;;;25.60;37.40;;;;;;5036623;28;1313;-38
2022/07/06 08:14:34;;;;;;;;;;;25.70;37.50;;;;;;5035941;28;961;-38
2022/07/06 08:17:01;;;;;;;;;;;25.80;37.50;;;;;;5030887;28;969;-37
2022/07/06 08:19:27;;;;;;;;;;;25.80;37.50;;;;;;5030581;28;1897;-38
2022/07/06 08:21:54;;;;;;;;;;;25.80;37.30;;;;;;5030296;28;998;-37
2022/07/06 08:24:21;;;;;;;;;;;25.80;37.40;;;;;;5029580;28;1056;-38
2022/07/06 08:26:49;;;;;;;;;;;25.80;37.40;;;;;;5029893;28;1185;-38
2022/07/06 08:29:15;;;;;;;;;;;25.80;37.50;;;;;;5030481;28;977;-38
2022/07/06 08:31:42;;;;;;;;;;;25.90;37.60;;;;;;5031800;28;910;-38
2022/07/06 08:34:09;;;;;;;;;;;25.90;37.60;;;;;;5031280;28;993;-38
2022/07/06 08:36:36;;;;;;;;;;;26.00;37.70;;;;;;5031060;28;925;-38
2022/07/06 08:39:03;;;;;;;;;;;26.00;37.40;;;;;;5030747;28;938;-38
2022/07/06 08:41:30;;;;;;;;;;;26.10;37.40;;;;;;5029901;28;1981;-38
2022/07/06 08:43:58;;;;;;;;;;;26.10;37.20;;;;;;5030753;28;1558;-38
2022/07/06 08:46:26;;;;;;;;;;;26.20;37.20;;;;;;5033831;28;1027;-37
2022/07/06 08:48:53;;;;;;;;;;;26.20;36.80;;;;;;5034160;28;989;-39
2022/07/06 08:51:22;;;;;;;;;;;26.30;37.00;;;;;;5034114;28;1104;-38
2022/07/06 08:53:48;;;;;;;;;;;26.30;37.00;;;;;;5034889;28;921;-35
2022/07/06 08:56:16;;;;;;;;;;;26.30;37.00;;;;;;5035148;28;943;-36
2022/07/06 08:58:43;;;;;;;;;;;26.30;36.80;;;;;;5033328;28;857;-36
2022/07/06 09:01:11;;;;;;;;;;;26.30;36.70;;;;;;5035622;28;1910;-36
2022/07/06 09:03:39;;;;;;;;;;;26.30;36.70;;;;;;5036678;28;966;-36
2022/07/06 09:06:07;;;;;;;;;;;26.30;37.60;;;;;;5037632;28;965;-36
2022/07/06 09:08:36;;;;;;;;;;;26.40;36.40;;;;;;5037782;28;2253;-36
2022/07/06 09:11:03;;;;;;;;;;;26.30;36.50;;;;;;5036593;28;970;-36
2022/07/06 09:13:30;;;;;;;;;;;26.30;36.20;;;;;;5037036;28;1009;-38
2022/07/06 09:16:09;;;;;;;;;;;26.30;36.00;;;;;;5036211;28;1000;-37
2022/07/06 09:18:39;;;;;;;;;;;26.30;35.70;;;;;;5037835;28;1029;-36
2022/07/06 09:21:05;;;;;;;;;;;26.20;35.90;;;;;;5037829;28;1902;-42
2022/07/06 09:23:32;;;;;;;;;;;26.10;35.80;;;;;;5036924;28;1073;-35
2022/07/06 09:26:02;;;;;;;;;;;26.10;36.30;;;;;;5036894;28;907;-37
2022/07/06 09:28:40;;;;;;;;;;;26.20;36.40;;;;;;5036444;28;950;-41
2022/07/06 09:31:07;;;;;;;;;;;26.20;36.00;;;;;;5037532;28;1536;-39
2022/07/06 09:33:35;;;;;;;;;;;26.30;35.80;;;;;;5036757;28;938;-39
2022/07/06 09:36:03;;;;;;;;;;;26.30;36.00;;;;;;5035070;28;985;-36
2022/07/06 09:38:30;;;;;;;;;;;26.40;36.20;;;;;;5035257;28;965;-36
2022/07/06 09:40:57;;;;;;;;;;;26.50;36.00;;;;;;5035173;28;1910;-35
2022/07/06 09:43:24;;;;;;;;;;;26.60;35.90;;;;;;5035541;28;1028;-37
2022/07/06 09:45:51;;;;;;;;;;;26.60;35.70;;;;;;5034431;28;1016;-39
2022/07/06 09:48:21;;;;;;;;;;;26.60;35.70;;;;;;5034644;28;997;-36
2022/07/06 09:50:48;;;;;;;;;;;26.50;35.80;;;;;;5035125;28;997;-40
2022/07/06 09:53:16;;;;;;;;;;;26.60;35.90;;;;;;5033818;28;1029;-37
2022/07/06 09:55:46;;;;;;;;;;;26.70;35.80;;;;;;5032879;28;1061;-36
2022/07/06 09:58:13;;;;;;;;;;;26.60;35.70;;;;;;5033078;28;1026;-38
2022/07/06 10:00:40;;;;;;;;;;;26.70;35.70;;;;;;5034094;28;1914;-37
2022/07/06 10:03:08;;;;;;;;;;;26.70;35.80;;;;;;5033671;28;934;-41
2022/07/06 10:05:36;;;;;;;;;;;26.70;35.90;;;;;;5033984;28;1006;-35
2022/07/06 10:08:05;;;;;;;;;;;26.70;35.80;;;;;;5033412;28;1207;-35
2022/07/06 10:10:33;;;;;;;;;;;26.80;35.80;;;;;;5034913;28;1099;-36
2022/07/06 10:13:01;;;;;;;;;;;26.80;35.70;;;;;;5035491;28;1073;-35
2022/07/06 10:15:31;;;;;;;;;;;26.80;35.80;;;;;;5034070;28;1028;-35
2022/07/06 10:17:57;;;;;;;;;;;26.90;35.80;;;;;;5032774;28;987;-35
2022/07/06 10:20:28;;;;;;;;;;;26.80;35.80;;;;;;5033265;28;1914;-37
2022/07/06 10:22:55;;;;;;;;;;;26.80;35.90;;;;;;5033308;28;1215;-35
2022/07/06 10:25:22;;;;;;;;;;;26.80;36.00;;;;;;5030240;28;966;-35
2022/07/06 10:27:52;;;;;;;;;;;26.80;35.90;;;;;;5032786;28;984;-35
2022/07/06 10:30:19;;;;;;;;;;;26.90;36.10;;;;;;5030211;28;1346;-36
2022/07/06 10:32:47;;;;;;;;;;;26.90;36.10;;;;;;5014132;28;1030;-35
2022/07/06 10:35:15;;;;;;;;;;;26.90;36.30;;;;;;5013298;28;982;-35
2022/07/06 10:37:42;;;;;;;;;;;26.90;36.90;;;;;;5013226;28;1073;-35
2022/07/06 10:42:58;;;;;;;;;;;26.90;36.70;;;;;;5013648;28;1010;-38
2022/07/06 10:45:43;;;;;;;;;;;27.00;36.90;;;;;;5013999;28;1000;-41
2022/07/06 10:48:20;;;;;;;;;;;27.00;36.90;;;;;;5000089;28;1141;-42
2022/07/06 10:50:48;;;;;;;;;;;27.00;36.90;;;;;;5013921;28;1005;-42
2022/07/06 10:53:16;;;;;;;;;;;27.00;37.10;;;;;;5013820;28;981;-42
2022/07/06 10:55:46;;;;;;;;;;;27.10;37.20;;;;;;5013930;28;993;-43
2022/07/06 10:58:14;;;;;;;;;;;27.10;37.30;;;;;;5014802;28;1026;-44
2022/07/06 11:00:51;;;;;;;;;;;27.10;37.50;;;;;;5013956;28;1965;-46
2022/07/06 11:03:48;;;;;;;;;;;27.20;37.40;;;;;;5016148;28;1005;-45
2022/07/06 11:06:16;;;;;;;;;;;27.20;37.10;;;;;;4940430;29;1532;-44
2022/07/06 11:08:43;;;;;;;;;;;27.10;36.80;;;;;;5018506;28;895;-43
2022/07/06 11:11:16;;;;;;;;;;;27.10;37.10;;;;;;5036280;28;1164;-44
2022/07/06 11:13:48;;;;;;;;;;;27.10;37.30;;;;;;5034966;28;838;-39
2022/07/06 11:16:15;;;;;;;;;;;27.10;37.40;;;;;;5035334;28;950;-34
2022/07/06 11:18:42;;;;;;;;;;;27.10;37.50;;;;;;5034436;28;986;-35
2022/07/06 11:21:22;;;;;;;;;;;27.10;37.20;;;;;;5033249;28;1918;-35
2022/07/06 11:23:50;;;;;;;;;;;27.10;37.30;;;;;;5033424;28;1045;-34
2022/07/06 11:26:17;;;;;;;;;;;27.10;37.20;;;;;;5032997;28;1020;-34
2022/07/06 11:28:47;;;;;;;;;;;27.10;37.10;;;;;;5033939;28;985;-34
2022/07/06 11:31:15;;;;;;;;;;;27.10;37.20;;;;;;5033724;28;1097;-34
2022/07/06 11:33:42;;;;;;;;;;;27.10;37.30;;;;;;5033510;28;932;-34
2022/07/06 11:36:12;;;;;;;;;;;27.10;37.10;;;;;;5032473;28;989;-34
2022/07/06 11:38:39;;;;;;;;;;;27.10;37.30;;;;;;5033189;28;1005;-34
2022/07/06 11:41:06;;;;;;;;;;;27.10;37.20;;;;;;5033279;28;1983;-35
2022/07/06 11:43:33;;;;;;;;;;;27.10;37.20;;;;;;5033231;28;929;-34
2022/07/06 11:46:01;;;;;;;;;;;27.10;37.30;;;;;;5032096;28;929;-34
2022/07/06 11:48:28;;;;;;;;;;;27.10;37.30;;;;;;5032828;28;945;-34
2022/07/06 11:50:59;;;;;;;;;;;27.10;37.30;;;;;;5031083;28;1809;-34
2022/07/06 11:53:25;;;;;;;;;;;27.10;37.20;;;;;;5032427;28;918;-34
2022/07/06 11:55:52;;;;;;;;;;;27.10;37.30;;;;;;5032567;28;958;-35
2022/07/06 11:58:21;;;;;;;;;;;27.10;37.30;;;;;;5031043;28;925;-35
2022/07/06 12:03:40;;;;;;;;;;;27.20;37.20;;;;;;5110787;27;1176;-33
2022/07/06 12:06:08;;;;;;;;;;;27.20;37.20;;;;;;5110326;28;984;-32
2022/07/06 12:08:41;;;;;;;;;;;27.20;37.10;;;;;;5110188;28;1133;-32
2022/07/06 12:11:08;;;;;;;;;;;27.20;37.20;;;;;;5109431;28;933;-32
2022/07/06 12:13:36;;;;;;;;;;;27.20;37.20;;;;;;5108874;28;988;-32
2022/07/06 12:16:09;;;;;;;;;;;27.20;37.20;;;;;;5111080;28;1031;-32
2022/07/06 12:18:40;;;;;;;;;;;27.20;37.20;;;;;;5110371;28;936;-32
2022/07/06 12:21:10;;;;;;;;;;;27.20;37.10;;;;;;5110865;28;846;-33
2022/07/06 12:23:44;;;;;;;;;;;27.20;37.20;;;;;;5111505;28;1902;-32
2022/07/06 12:26:11;;;;;;;;;;;27.20;37.20;;;;;;5111227;28;976;-33
2022/07/06 12:28:38;;;;;;;;;;;27.20;37.20;;;;;;5110276;28;834;-32
2022/07/06 12:31:04;;;;;;;;;;;27.20;37.10;;;;;;5108021;28;1009;-32
2022/07/06 12:33:31;;;;;;;;;;;27.20;37.20;;;;;;5106832;28;989;-32
2022/07/06 12:36:09;;;;;;;;;;;27.20;37.30;;;;;;5107395;28;916;-34
2022/07/06 12:38:35;;;;;;;;;;;27.20;37.30;;;;;;5110290;28;902;-34
2022/07/06 12:41:02;;;;;;;;;;;27.20;37.20;;;;;;5110074;28;951;-33
2022/07/06 12:43:36;;;;;;;;;;;27.20;37.20;;;;;;5109184;28;1910;-35
2022/07/06 12:46:17;;;;;;;;;;;27.20;37.30;;;;;;5109274;28;1031;-33
2022/07/06 12:48:53;;;;;;;;;;;27.20;37.30;;;;;;5109692;28;1566;-34
2022/07/06 12:51:22;;;;;;;;;;;27.20;37.20;;;;;;5111667;28;1040;-33
2022/07/06 12:53:49;;;;;;;;;;;27.20;37.90;;;;;;5112038;28;1001;-34
2022/07/06 12:56:17;;;;;;;;;;;27.30;37.30;;;;;;5112246;28;977;-33
2022/07/06 12:59:00;;;;;;;;;;;27.30;37.20;;;;;;5111882;28;936;-33
2022/07/06 13:01:26;;;;;;;;;;;27.30;37.20;;;;;;5111158;28;1039;-34
2022/07/06 13:03:56;;;;;;;;;;;27.30;37.20;;;;;;5110669;28;1988;-35
2022/07/06 13:06:34;;;;;;;;;;;27.40;37.20;;;;;;5112918;28;955;-34
2022/07/06 13:09:01;;;;;;;;;;;27.40;37.20;;;;;;5109714;28;1015;-34
2022/07/06 13:11:28;;;;;;;;;;;27.30;37.20;;;;;;5109819;28;1176;-34
2022/07/06 13:13:55;;;;;;;;;;;27.40;37.40;;;;;;5100598;28;979;-35
2022/07/06 13:16:24;;;;;;;;;;;27.30;38.40;;;;;;5095687;28;940;-38
2022/07/06 13:18:50;;;;;;;;;;;27.40;37.30;;;;;;5096717;28;941;-38
2022/07/06 13:21:17;;;;;;;;;;;27.40;37.20;;;;;;5096414;28;1011;-38
2022/07/06 13:23:46;;;;;;;;;;;27.40;37.20;;;;;;5098559;28;1965;-39
2022/07/06 13:26:12;;;;;;;;;;;27.40;37.30;;;;;;5098386;28;959;-37
2022/07/06 13:28:39;;;;;;;;;;;27.40;37.20;;;;;;5097761;28;1003;-38
2022/07/06 13:31:06;;;;;;;;;;;27.40;37.30;;;;;;5097851;28;1833;-41
2022/07/06 13:33:33;;;;;;;;;;;27.40;37.30;;;;;;5097206;28;1505;-38
2022/07/06 13:35:59;;;;;;;;;;;27.40;37.20;;;;;;5097752;28;948;-38
2022/07/06 13:38:26;;;;;;;;;;;27.40;37.30;;;;;;5097854;28;1147;-35
2022/07/06 13:40:55;;;;;;;;;;;27.40;37.20;;;;;;5098602;28;1865;-37
2022/07/06 13:43:23;;;;;;;;;;;27.40;37.20;;;;;;5096760;28;1949;-41
2022/07/06 13:45:49;;;;;;;;;;;27.40;37.20;;;;;;5096555;28;936;-42
2022/07/06 13:48:16;;;;;;;;;;;27.40;37.30;;;;;;5095730;28;1004;-38
2022/07/06 13:50:43;;;;;;;;;;;27.50;37.30;;;;;;5094761;28;964;-42
2022/07/06 13:53:10;;;;;;;;;;;27.50;37.30;;;;;;5095151;28;1004;-42
2022/07/06 13:55:37;;;;;;;;;;;27.50;37.30;;;;;;5095304;28;1050;-41
2022/07/06 13:58:06;;;;;;;;;;;27.50;37.20;;;;;;5094154;28;991;-41
2022/07/06 14:00:33;;;;;;;;;;;27.50;37.20;;;;;;5094388;28;972;-38
2022/07/06 14:03:00;;;;;;;;;;;27.50;37.00;;;;;;5094804;28;1988;-42
2022/07/06 14:05:28;;;;;;;;;;;27.40;36.80;;;;;;5093910;28;999;-42
2022/07/06 14:07:56;;;;;;;;;;;27.50;36.60;;;;;;5094209;28;1008;-39
2022/07/06 14:10:22;;;;;;;;;;;27.50;36.60;;;;;;5094819;28;1026;-37
2022/07/06 14:12:49;;;;;;;;;;;27.40;36.50;;;;;;5092974;28;1008;-39
2022/07/06 14:15:17;;;;;;;;;;;27.50;36.50;;;;;;5093695;28;993;-40
2022/07/06 14:17:44;;;;;;;;;;;27.50;36.40;;;;;;5094281;28;992;-39
2022/07/06 14:20:12;;;;;;;;;;;27.50;36.20;;;;;;5094409;28;1494;-39
2022/07/06 14:22:39;;;;;;;;;;;27.50;36.00;;;;;;5094628;28;1897;-38
2022/07/06 14:25:06;;;;;;;;;;;27.50;35.70;;;;;;5091898;28;952;-39
2022/07/06 14:27:33;;;;;;;;;;;27.60;35.50;;;;;;5093612;28;997;-38
2022/07/06 14:30:00;;;;;;;;;;;27.60;36.60;;;;;;5093662;28;866;-41
2022/07/06 14:32:28;;;;;;;;;;;27.60;35.60;;;;;;5092003;28;916;-37
2022/07/06 14:34:55;;;;;;;;;;;27.60;35.40;;;;;;5091665;28;822;-41
2022/07/06 14:37:22;;;;;;;;;;;27.60;35.00;;;;;;5092656;28;1610;-41
2022/07/06 14:39:50;;;;;;;;;;;27.60;34.80;;;;;;5092957;28;1020;-41
2022/07/06 14:42:17;;;;;;;;;;;27.70;34.90;;;;;;5093393;28;1976;-40
2022/07/06 14:44:43;;;;;;;;;;;27.70;34.80;;;;;;5094772;28;987;-43
2022/07/06 14:47:10;;;;;;;;;;;27.70;34.40;;;;;;5094037;28;2442;-46
2022/07/06 14:49:44;;;;;;;;;;;27.70;34.60;;;;;;5066019;28;928;-41